Time;durP1;ratioP1;P1;durP2;ratioP2;P2;SDS_P1;SDS_P2;PMS_P1;PMS_P2;Temp;Humidity;BMP_temperature;BMP_pressure;BME280_temperature;BME280_humidity;BME280_pressure;Samples;Min_cycle;Max_cycle;Signal;HPM_P1;HPM_P2
2023/10/03 00:01:09;;;;;;;6.00;2.17;;;17.80;99.90;;;;;;5045271;28;20051;-67
2023/10/03 00:03:36;;;;;;;4.45;2.10;;;17.80;99.90;;;;;;5046799;28;20080;-67
2023/10/03 00:06:05;;;;;;;3.70;2.33;;;17.70;99.90;;;;;;5031606;28;20044;-68
2023/10/03 00:08:31;;;;;;;4.13;1.98;;;17.70;99.90;;;;;;5058859;28;20052;-67
2023/10/03 00:10:58;;;;;;;8.23;3.05;;;17.70;99.90;;;;;;5052525;28;20095;-67
2023/10/03 00:13:25;;;;;;;2.85;1.67;;;17.70;99.90;;;;;;5053838;28;20106;-68
2023/10/03 00:15:52;;;;;;;5.85;2.53;;;17.70;99.90;;;;;;5055956;28;20045;-67
2023/10/03 00:18:19;;;;;;;4.10;1.98;;;17.70;99.90;;;;;;5051073;28;20048;-66
2023/10/03 00:20:47;;;;;;;7.57;2.50;;;17.70;99.90;;;;;;5055461;28;20054;-67
2023/10/03 00:23:14;;;;;;;3.58;2.10;;;17.80;99.90;;;;;;5035200;28;20558;-67
2023/10/03 00:25:41;;;;;;;4.68;1.70;;;17.70;99.90;;;;;;5042178;28;20041;-67
2023/10/03 00:28:10;;;;;;;3.90;2.20;;;17.70;99.90;;;;;;5059944;28;20037;-68
2023/10/03 00:30:40;;;;;;;4.32;2.22;;;17.70;99.90;;;;;;5050248;28;20186;-68
2023/10/03 00:33:11;;;;;;;4.50;2.10;;;17.70;99.90;;;;;;5056406;28;20071;-68
2023/10/03 00:35:40;;;;;;;4.55;2.47;;;17.70;99.90;;;;;;5053762;28;20430;-68
2023/10/03 00:38:13;;;;;;;3.97;2.22;;;17.70;99.90;;;;;;5041187;28;20109;-68
2023/10/03 00:40:40;;;;;;;5.13;2.53;;;17.70;99.90;;;;;;5053517;28;20126;-67
2023/10/03 00:43:07;;;;;;;12.70;2.53;;;17.60;99.90;;;;;;5022893;28;20404;-67
2023/10/03 00:45:34;;;;;;;3.10;1.95;;;17.60;99.90;;;;;;5060371;28;20457;-68
2023/10/03 00:48:02;;;;;;;4.65;2.58;;;17.70;99.90;;;;;;5053625;28;20511;-67
2023/10/03 00:50:31;;;;;;;4.38;2.35;;;17.70;99.90;;;;;;5042267;28;20530;-68
2023/10/03 00:53:00;;;;;;;3.35;2.20;;;17.60;99.90;;;;;;5058410;28;20041;-68
2023/10/03 00:55:32;;;;;;;5.78;3.05;;;17.60;99.90;;;;;;5059427;28;20067;-68
2023/10/03 00:58:07;;;;;;;7.13;2.40;;;17.50;99.90;;;;;;5039507;28;20074;-67
2023/10/03 01:00:38;;;;;;;4.60;2.28;;;17.60;99.90;;;;;;5037332;28;20095;-67
2023/10/03 01:03:09;;;;;;;3.83;2.40;;;17.40;99.90;;;;;;5054585;28;20052;-67
2023/10/03 01:05:36;;;;;;;9.45;2.40;;;17.30;99.90;;;;;;5056109;28;20072;-67
2023/10/03 01:08:05;;;;;;;3.92;2.65;;;17.10;99.90;;;;;;5053825;28;20128;-67
2023/10/03 01:10:32;;;;;;;3.95;2.65;;;17.00;99.90;;;;;;5064014;28;20152;-67
2023/10/03 01:13:12;;;;;;;3.15;2.65;;;16.90;99.90;;;;;;5035769;28;20041;-67
2023/10/03 01:15:39;;;;;;;4.22;2.45;;;16.80;99.90;;;;;;5057696;28;20559;-68
2023/10/03 01:18:12;;;;;;;4.82;2.70;;;16.50;99.90;;;;;;5047780;28;20435;-67
2023/10/03 01:20:42;;;;;;;4.57;3.25;;;16.40;99.90;;;;;;5054558;28;20044;-69
2023/10/03 01:23:13;;;;;;;4.97;3.22;;;16.20;99.90;;;;;;5055659;28;20053;-67
2023/10/03 01:25:43;;;;;;;5.65;2.55;;;16.00;99.90;;;;;;5043714;28;20091;-67
2023/10/03 01:28:10;;;;;;;3.67;2.20;;;15.90;99.90;;;;;;5057004;28;20068;-68
2023/10/03 01:30:37;;;;;;;5.47;2.67;;;15.80;99.90;;;;;;5040263;28;20072;-68
2023/10/03 01:33:06;;;;;;;5.53;2.60;;;15.70;99.90;;;;;;5053288;28;20139;-68
2023/10/03 01:35:33;;;;;;;2.95;1.98;;;15.60;99.90;;;;;;5036783;28;20077;-68
2023/10/03 01:38:00;;;;;;;3.10;1.90;;;15.60;99.90;;;;;;5053349;28;20268;-68
2023/10/03 01:40:27;;;;;;;4.95;2.03;;;15.60;99.90;;;;;;5064010;28;20173;-68
2023/10/03 01:42:55;;;;;;;2.92;1.60;;;15.50;99.90;;;;;;5056789;28;20049;-68
2023/10/03 01:45:24;;;;;;;5.63;2.42;;;15.50;99.90;;;;;;5056714;28;20049;-68
2023/10/03 01:47:51;;;;;;;2.53;1.75;;;15.40;99.90;;;;;;5048705;28;20158;-68
2023/10/03 01:50:19;;;;;;;2.75;1.73;;;15.50;99.90;;;;;;5056454;28;20133;-69
2023/10/03 01:52:46;;;;;;;2.92;1.50;;;15.50;99.90;;;;;;5027684;28;20360;-67
2023/10/03 01:55:14;;;;;;;2.30;1.38;;;15.50;99.90;;;;;;5037280;28;20044;-67
2023/10/03 01:57:41;;;;;;;3.15;1.98;;;15.40;99.90;;;;;;5041327;28;20049;-68
2023/10/03 02:02:45;;;;;;;2.78;1.08;;;15.00;99.90;;;;;;5053078;28;20053;-67
2023/10/03 02:05:14;;;;;;;5.00;1.40;;;15.10;99.90;;;;;;5054588;28;20636;-67
2023/10/03 02:07:42;;;;;;;4.45;1.40;;;15.00;99.90;;;;;;5055136;28;20045;-68
2023/10/03 02:10:12;;;;;;;2.78;1.80;;;15.10;99.90;;;;;;5053121;28;20507;-68
2023/10/03 02:12:51;;;;;;;2.20;1.50;;;15.20;99.90;;;;;;5053513;28;20091;-68
2023/10/03 02:15:23;;;;;;;2.65;1.15;;;15.20;99.90;;;;;;5042167;28;20455;-67
2023/10/03 02:17:52;;;;;;;1.45;1.15;;;15.20;99.90;;;;;;5047936;28;20855;-68
2023/10/03 02:20:20;;;;;;;2.33;1.50;;;15.20;99.90;;;;;;5040383;28;20052;-68
2023/10/03 02:22:55;;;;;;;5.35;1.65;;;15.20;99.90;;;;;;5046076;28;20098;-68
2023/10/03 02:25:27;;;;;;;2.66;0.92;;;15.20;99.90;;;;;;4700096;28;10000400;-68
2023/10/03 02:27:55;;;;;;;5.13;1.70;;;15.10;99.90;;;;;;5060264;28;20045;-67
2023/10/03 02:30:30;;;;;;;2.15;1.27;;;15.10;99.90;;;;;;5052212;28;20033;-68
2023/10/03 02:33:03;;;;;;;2.42;1.42;;;15.00;99.90;;;;;;5047743;28;20491;-69
2023/10/03 02:35:30;;;;;;;2.70;1.27;;;14.90;99.90;;;;;;5054877;28;20041;-69
2023/10/03 02:37:57;;;;;;;1.50;0.98;;;14.80;99.90;;;;;;5055731;28;20071;-67
2023/10/03 02:40:28;;;;;;;2.80;1.13;;;14.70;99.90;;;;;;5052150;28;20214;-67
2023/10/03 02:42:55;;;;;;;4.47;1.52;;;14.60;99.90;;;;;;5056948;28;20201;-68
2023/10/03 02:45:23;;;;;;;7.20;3.78;;;14.60;99.90;;;;;;5026750;28;20041;-67
2023/10/03 02:47:58;;;;;;;2.15;1.48;;;14.60;99.90;;;;;;5046249;28;20044;-68
2023/10/03 02:50:26;;;;;;;2.63;1.20;;;14.60;99.90;;;;;;5045323;28;20575;-68
2023/10/03 02:52:55;;;;;;;2.00;0.75;;;14.60;99.90;;;;;;5051288;28;20045;-68
2023/10/03 02:55:22;;;;;;;2.85;1.50;;;14.60;99.90;;;;;;5049420;28;20451;-68
2023/10/03 02:57:49;;;;;;;2.60;1.48;;;14.60;99.90;;;;;;5052190;28;20053;-68
2023/10/03 03:00:16;;;;;;;2.17;1.20;;;14.60;99.90;;;;;;5057718;28;20041;-69
2023/10/03 03:02:47;;;;;;;1.33;0.80;;;14.60;99.90;;;;;;5042543;28;20102;-68
2023/10/03 03:05:21;;;;;;;3.35;0.98;;;14.60;99.90;;;;;;5053800;28;20036;-68
2023/10/03 03:07:49;;;;;;;1.50;0.98;;;14.60;99.90;;;;;;5032494;28;20066;-68
2023/10/03 03:10:17;;;;;;;1.25;0.80;;;14.50;99.90;;;;;;5065306;28;20708;-68
2023/10/03 03:12:44;;;;;;;2.70;1.08;;;14.40;99.90;;;;;;5061565;28;20063;-68
2023/10/03 03:15:12;;;;;;;1.33;0.90;;;14.40;99.90;;;;;;5054174;28;20415;-68
2023/10/03 03:17:41;;;;;;;0.90;0.77;;;14.40;99.90;;;;;;5060568;28;20519;-68
2023/10/03 03:20:18;;;;;;;1.13;0.85;;;14.40;99.90;;;;;;5054009;28;20409;-67
2023/10/03 03:22:48;;;;;;;2.97;1.02;;;14.40;99.90;;;;;;5055191;28;20557;-68
2023/10/03 03:25:25;;;;;;;1.75;0.93;;;14.40;99.90;;;;;;5044702;28;20403;-68
2023/10/03 03:27:53;;;;;;;2.47;1.33;;;14.20;99.90;;;;;;5057108;28;20565;-69
2023/10/03 03:32:53;;;;;;;2.97;1.27;;;14.30;99.90;;;;;;5052795;28;20072;-68
2023/10/03 03:35:24;;;;;;;1.73;1.13;;;14.10;99.90;;;;;;5058181;28;20060;-69
2023/10/03 03:37:57;;;;;;;4.57;1.30;;;14.10;99.90;;;;;;5061588;28;20410;-68
2023/10/03 03:40:33;;;;;;;4.75;1.52;;;14.00;99.90;;;;;;5053487;28;20041;-68
2023/10/03 03:43:02;;;;;;;2.08;1.15;;;13.90;99.90;;;;;;5050671;28;20106;-68
2023/10/03 03:45:30;;;;;;;3.15;1.10;;;13.80;99.90;;;;;;5057679;28;20041;-69
2023/10/03 03:47:57;;;;;;;2.80;1.83;;;13.80;99.90;;;;;;5042028;28;20132;-68
2023/10/03 03:50:24;;;;;;;4.65;1.80;;;13.70;99.90;;;;;;5063663;28;20056;-67
2023/10/03 03:52:51;;;;;;;2.13;1.80;;;13.70;99.90;;;;;;5065135;28;20411;-67
2023/10/03 03:55:18;;;;;;;2.22;1.52;;;13.70;99.90;;;;;;5054653;28;20036;-68
2023/10/03 03:57:45;;;;;;;3.33;2.25;;;13.70;99.90;;;;;;5043799;28;20388;-68
2023/10/03 04:00:22;;;;;;;3.00;1.88;;;13.60;99.90;;;;;;5060342;28;20037;-68
2023/10/03 04:02:49;;;;;;;3.13;1.88;;;13.60;99.90;;;;;;5049471;28;20087;-68
2023/10/03 04:05:18;;;;;;;3.78;1.92;;;13.60;99.90;;;;;;5054205;28;20132;-68
2023/10/03 04:07:45;;;;;;;3.45;2.30;;;13.50;99.90;;;;;;5033060;28;21575;-67
2023/10/03 04:10:13;;;;;;;5.82;2.63;;;13.50;99.90;;;;;;5065276;28;20484;-68
2023/10/03 04:12:41;;;;;;;4.60;2.83;;;13.50;99.90;;;;;;5051756;28;20044;-67
2023/10/03 04:15:12;;;;;;;3.95;2.50;;;13.50;99.90;;;;;;5067913;28;20131;-67
2023/10/03 04:17:43;;;;;;;2.53;2.08;;;13.50;99.90;;;;;;5050238;28;20057;-68
2023/10/03 04:20:19;;;;;;;5.28;3.38;;;13.50;99.90;;;;;;5060159;28;20074;-68
2023/10/03 04:22:50;;;;;;;4.15;3.13;;;13.50;99.90;;;;;;5049062;28;20056;-68
2023/10/03 04:25:21;;;;;;;3.13;2.75;;;13.50;99.90;;;;;;5021193;28;20097;-70
2023/10/03 04:27:48;;;;;;;3.55;2.83;;;13.50;99.90;;;;;;5062031;28;20049;-68
2023/10/03 04:30:16;;;;;;;5.88;3.50;;;13.50;99.90;;;;;;5063288;28;20106;-68
2023/10/03 04:32:43;;;;;;;4.72;3.50;;;13.50;99.90;;;;;;5054712;28;20053;-68
2023/10/03 04:35:18;;;;;;;5.05;3.25;;;13.50;99.90;;;;;;5051139;28;20145;-69
2023/10/03 04:37:46;;;;;;;4.22;3.30;;;13.50;99.90;;;;;;5028443;28;20044;-68
2023/10/03 04:40:15;;;;;;;3.95;2.97;;;13.50;99.90;;;;;;5065505;28;20530;-67
2023/10/03 04:42:45;;;;;;;6.43;4.15;;;13.40;99.90;;;;;;5041902;28;20499;-67
2023/10/03 04:45:14;;;;;;;7.93;3.50;;;13.50;99.90;;;;;;5052969;28;20063;-67
2023/10/03 04:47:41;;;;;;;6.13;4.50;;;13.50;99.90;;;;;;5062978;28;20106;-67
2023/10/03 04:50:09;;;;;;;6.38;4.47;;;13.50;99.90;;;;;;5055601;28;20068;-67
2023/10/03 04:52:36;;;;;;;8.48;4.38;;;13.40;99.90;;;;;;5047242;28;20036;-66
2023/10/03 04:55:03;;;;;;;5.82;4.30;;;13.30;99.90;;;;;;5058163;28;20094;-68
2023/10/03 04:57:30;;;;;;;6.45;4.68;;;13.20;99.90;;;;;;5050643;28;20064;-67
2023/10/03 04:59:57;;;;;;;6.60;4.80;;;13.20;99.90;;;;;;5059737;28;20122;-67
2023/10/03 05:02:23;;;;;;;6.18;4.40;;;13.20;99.90;;;;;;5054525;28;20060;-67
2023/10/03 05:04:51;;;;;;;7.28;5.00;;;13.20;99.90;;;;;;5020863;28;20101;-68
2023/10/03 05:07:18;;;;;;;8.52;5.32;;;13.10;99.90;;;;;;5056537;28;20492;-68
2023/10/03 05:09:45;;;;;;;5.95;5.07;;;13.00;99.90;;;;;;5052465;28;20802;-68
2023/10/03 05:12:12;;;;;;;9.65;5.70;;;13.00;99.90;;;;;;5040158;28;20045;-68
2023/10/03 05:14:40;;;;;;;7.53;5.05;;;13.00;99.90;;;;;;5049020;28;20049;-68
2023/10/03 05:17:07;;;;;;;9.63;5.28;;;13.00;99.90;;;;;;5043180;28;20044;-67
2023/10/03 05:19:36;;;;;;;9.95;5.03;;;13.00;99.90;;;;;;5056768;28;20594;-67
2023/10/03 05:22:03;;;;;;;6.72;4.22;;;13.10;99.90;;;;;;5053334;28;20041;-68
2023/10/03 05:24:33;;;;;;;7.60;4.45;;;13.00;99.90;;;;;;5050395;28;20048;-68
2023/10/03 05:27:00;;;;;;;4.57;3.03;;;13.00;99.90;;;;;;5052352;28;20044;-68
2023/10/03 05:29:27;;;;;;;4.82;3.22;;;13.10;99.90;;;;;;5045322;28;20415;-68
2023/10/03 05:31:54;;;;;;;4.90;3.22;;;13.10;99.90;;;;;;5060890;28;20132;-70
2023/10/03 05:34:21;;;;;;;6.60;3.05;;;13.10;99.90;;;;;;5050840;28;20172;-69
2023/10/03 05:36:48;;;;;;;5.88;3.15;;;13.20;99.90;;;;;;5058379;28;20331;-68
2023/10/03 05:39:16;;;;;;;5.97;2.88;;;13.10;99.90;;;;;;5059376;28;20048;-68
2023/10/03 05:41:46;;;;;;;8.77;3.55;;;13.10;99.90;;;;;;5039912;28;20128;-68
2023/10/03 05:44:13;;;;;;;6.05;2.97;;;13.20;99.90;;;;;;5041288;28;20049;-67
2023/10/03 05:46:42;;;;;;;5.72;3.30;;;13.30;99.90;;;;;;5048555;28;20044;-68
2023/10/03 05:49:09;;;;;;;4.38;2.78;;;13.40;99.90;;;;;;5049282;28;20047;-67
2023/10/03 05:51:36;;;;;;;;;;;13.30;99.90;;;;;;4693076;28;10000243;-67
2023/10/03 05:54:05;;;;;;;5.45;3.00;;;13.40;99.90;;;;;;5038920;28;19924;-67
2023/10/03 05:56:32;;;;;;;6.35;2.58;;;13.50;99.90;;;;;;5038019;28;20048;-67
2023/10/03 05:59:01;;;;;;;7.60;2.90;;;13.60;99.90;;;;;;5053149;28;20127;-67
2023/10/03 06:01:28;;;;;;;5.35;2.67;;;13.60;99.90;;;;;;5031610;28;20053;-68
2023/10/03 06:03:56;;;;;;;10.45;4.03;;;13.60;99.90;;;;;;5060334;28;20087;-67
2023/10/03 06:06:28;;;;;;;9.50;3.50;;;13.60;99.90;;;;;;5051475;28;20399;-67
2023/10/03 06:08:56;;;;;;;8.30;2.97;;;13.50;99.90;;;;;;5049745;28;20105;-68
2023/10/03 06:11:24;;;;;;;5.90;3.75;;;13.60;99.90;;;;;;5048562;28;20044;-69
2023/10/03 06:13:51;;;;;;;6.95;3.72;;;13.50;99.90;;;;;;5030651;28;20450;-70
2023/10/03 06:16:18;;;;;;;7.13;3.30;;;13.50;99.90;;;;;;5053749;28;20045;-68
2023/10/03 06:18:44;;;;;;;6.20;3.60;;;13.50;99.90;;;;;;5053433;28;20107;-69
2023/10/03 06:21:11;;;;;;;9.27;4.28;;;13.40;99.90;;;;;;5048312;28;20125;-68
2023/10/03 06:23:38;;;;;;;6.93;3.80;;;13.50;99.90;;;;;;5056751;28;20497;-68
2023/10/03 06:26:05;;;;;;;6.78;4.45;;;13.50;99.90;;;;;;5045005;28;20473;-69
2023/10/03 06:28:35;;;;;;;8.73;4.82;;;13.40;99.90;;;;;;5057468;28;20045;-70
2023/10/03 06:31:05;;;;;;;8.17;3.83;;;13.50;99.90;;;;;;5043733;28;20057;-70
2023/10/03 06:33:35;;;;;;;8.25;3.72;;;13.50;99.90;;;;;;5038787;28;20098;-70
2023/10/03 06:36:06;;;;;;;9.05;3.78;;;13.50;99.90;;;;;;5044063;28;20061;-71
2023/10/03 06:38:34;;;;;;;8.50;4.28;;;13.50;99.90;;;;;;5010673;28;20041;-58
2023/10/03 06:41:02;;;;;;;9.25;4.63;;;13.40;99.90;;;;;;5048656;28;20049;-60
2023/10/03 06:43:28;;;;;;;8.88;3.80;;;13.40;99.90;;;;;;5010613;28;20489;-55
2023/10/03 06:45:55;;;;;;;7.68;3.78;;;13.50;99.90;;;;;;5049848;28;20472;-55
2023/10/03 06:48:23;;;;;;;7.97;4.13;;;13.50;99.90;;;;;;5038378;28;20072;-56
2023/10/03 06:50:51;;;;;;;10.10;4.32;;;13.50;99.90;;;;;;5047002;28;20040;-55
2023/10/03 06:53:18;;;;;;;5.53;3.53;;;13.50;99.90;;;;;;5045995;28;20446;-55
2023/10/03 06:55:45;;;;;;;9.77;4.15;;;13.50;99.90;;;;;;5044002;28;20044;-55
2023/10/03 06:58:12;;;;;;;8.77;4.68;;;13.60;99.90;;;;;;5039759;28;20107;-56
2023/10/03 07:00:39;;;;;;;8.18;4.28;;;13.50;99.90;;;;;;5054741;28;20049;-51
2023/10/03 07:03:06;;;;;;;11.60;5.07;;;13.50;99.90;;;;;;5050950;28;20060;-54
2023/10/03 07:05:33;;;;;;;8.35;4.38;;;13.50;99.90;;;;;;5059639;28;20045;-51
2023/10/03 07:08:00;;;;;;;7.35;4.55;;;13.50;99.90;;;;;;5045465;28;20041;-54
2023/10/03 07:10:27;;;;;;;9.70;4.82;;;13.40;99.90;;;;;;5049184;28;20045;-52
2023/10/03 07:12:54;;;;;;;9.25;4.90;;;13.40;99.90;;;;;;5053865;28;20480;-55
2023/10/03 07:15:21;;;;;;;8.30;4.60;;;13.30;99.90;;;;;;5057199;28;20063;-54
2023/10/03 07:17:48;;;;;;;9.75;4.97;;;13.30;99.90;;;;;;5054437;28;20085;-54
2023/10/03 07:20:16;;;;;;;8.90;4.90;;;13.30;99.90;;;;;;5048077;28;20042;-55
2023/10/03 07:22:43;;;;;;;11.57;4.93;;;13.30;99.90;;;;;;5053278;28;20052;-53
2023/10/03 07:25:11;;;;;;;8.05;4.75;;;13.30;99.90;;;;;;5065622;28;20048;-55
2023/10/03 07:27:41;;;;;;;9.77;5.30;;;13.30;99.90;;;;;;5041180;28;20597;-54
2023/10/03 07:30:09;;;;;;;13.30;4.80;;;13.30;99.90;;;;;;5041094;28;20068;-54
2023/10/03 07:32:36;;;;;;;8.70;5.85;;;13.50;99.90;;;;;;5045662;28;20435;-55
2023/10/03 07:35:03;;;;;;;8.18;5.22;;;13.50;99.90;;;;;;5032151;28;20068;-54
2023/10/03 07:37:30;;;;;;;8.05;4.60;;;13.60;99.90;;;;;;5045119;28;20045;-55
2023/10/03 07:39:57;;;;;;;6.75;3.95;;;13.50;99.90;;;;;;5028949;28;20048;-56
2023/10/03 07:42:24;;;;;;;9.30;4.82;;;13.50;99.90;;;;;;5041289;28;20094;-54
2023/10/03 07:44:53;;;;;;;10.05;5.15;;;13.60;99.90;;;;;;5057246;28;20386;-55
2023/10/03 07:47:22;;;;;;;6.25;3.83;;;13.70;99.90;;;;;;5042250;28;20044;-59
2023/10/03 07:49:51;;;;;;;7.13;4.80;;;13.70;99.90;;;;;;5050201;28;20045;-55
2023/10/03 07:52:18;;;;;;;7.30;3.88;;;13.70;99.90;;;;;;5049603;28;20126;-54
2023/10/03 07:54:54;;;;;;;9.95;4.43;;;13.70;99.90;;;;;;5058654;28;20616;-54
2023/10/03 07:57:25;;;;;;;7.05;4.70;;;13.70;99.90;;;;;;5039747;28;20056;-59
2023/10/03 07:59:53;;;;;;;13.93;6.07;;;13.80;99.90;;;;;;5055348;28;20044;-57
2023/10/03 08:02:26;;;;;;;13.13;4.75;;;13.70;99.90;;;;;;4694618;28;10000295;-53
2023/10/03 08:04:58;;;;;;;7.22;4.85;;;13.70;99.90;;;;;;5053179;28;20041;-58
2023/10/03 08:07:47;;;;;;;10.23;4.78;;;13.80;99.90;;;;;;5033454;28;20053;-57
2023/10/03 08:10:15;;;;;;;7.72;4.55;;;13.70;99.90;;;;;;5059532;28;20045;-53
2023/10/03 08:12:43;;;;;;;7.88;4.78;;;13.70;99.90;;;;;;5034947;28;20052;-54
2023/10/03 08:15:19;;;;;;;12.63;4.90;;;13.70;99.90;;;;;;5038109;28;20421;-55
2023/10/03 08:17:48;;;;;;;6.55;3.80;;;13.70;99.90;;;;;;5046945;28;20055;-52
2023/10/03 08:20:17;;;;;;;9.45;4.85;;;13.80;99.90;;;;;;5032006;28;20689;-63
2023/10/03 08:22:50;;;;;;;10.23;3.85;;;13.80;99.90;;;;;;5046878;28;20044;-53
2023/10/03 08:25:20;;;;;;;;;;;13.80;99.90;;;;;;5063152;28;20045;-54
2023/10/03 08:27:49;;;;;;;21.23;4.13;;;13.90;99.90;;;;;;5035917;28;20023;-56
2023/10/03 08:30:27;;;;;;;10.63;3.92;;;13.90;99.90;;;;;;5054546;28;20047;-56
2023/10/03 08:32:55;;;;;;;7.65;3.50;;;14.00;99.90;;;;;;5067020;28;20045;-53
2023/10/03 08:35:34;;;;;;;7.15;4.05;;;13.90;99.90;;;;;;5037381;28;20166;-54
2023/10/03 08:38:04;;;;;;;7.93;4.05;;;14.00;99.90;;;;;;5054173;28;20090;-56
2023/10/03 08:40:37;;;;;;;8.57;3.38;;;13.90;99.90;;;;;;5058163;28;20052;-53
2023/10/03 08:43:09;;;;;;;7.00;2.95;;;13.90;99.90;;;;;;5040446;28;21389;-54
2023/10/03 08:45:41;;;;;;;6.65;3.17;;;13.90;99.90;;;;;;5048222;28;20068;-54
2023/10/03 08:48:08;;;;;;;11.57;3.60;;;14.10;99.90;;;;;;5064637;28;20098;-54
2023/10/03 08:50:46;;;;;;;6.95;3.50;;;14.30;99.90;;;;;;5059314;28;20049;-53
2023/10/03 08:53:16;;;;;;;7.72;3.03;;;14.60;99.90;;;;;;5063406;28;20067;-52
2023/10/03 08:55:47;;;;;;;8.40;3.28;;;14.80;99.90;;;;;;5042343;28;20049;-54
2023/10/03 08:58:18;;;;;;;5.93;2.75;;;15.00;99.90;;;;;;5044374;28;20052;-55
2023/10/03 09:00:47;;;;;;;12.43;2.97;;;14.80;99.90;;;;;;5060903;28;20049;-55
2023/10/03 09:03:15;;;;;;;4.93;2.50;;;14.70;99.90;;;;;;5060412;28;20113;-56
2023/10/03 09:05:42;;;;;;;5.03;2.47;;;14.80;99.90;;;;;;5054802;28;20056;-55
2023/10/03 09:08:10;;;;;;;5.57;2.70;;;15.10;99.90;;;;;;5055350;28;20045;-63
2023/10/03 09:10:52;;;;;;;5.70;2.30;;;15.30;99.90;;;;;;5031295;28;20049;-54
2023/10/03 09:13:23;;;;;;;4.85;2.38;;;15.30;99.90;;;;;;5059044;28;20055;-55
2023/10/03 09:15:59;;;;;;;5.40;2.15;;;15.20;99.90;;;;;;5050801;28;20040;-53
2023/10/03 09:18:30;;;;;;;3.95;2.05;;;15.10;99.90;;;;;;5057969;28;20135;-55
2023/10/03 09:21:00;;;;;;;13.82;2.45;;;15.00;99.90;;;;;;5064828;28;20495;-54
2023/10/03 09:23:27;;;;;;;4.97;2.30;;;15.00;99.90;;;;;;5056880;28;20148;-54
2023/10/03 09:25:57;;;;;;;6.97;2.10;;;14.90;99.90;;;;;;5048969;28;20475;-54
2023/10/03 09:28:35;;;;;;;6.57;2.55;;;14.80;99.90;;;;;;5054945;28;20074;-52
2023/10/03 09:31:08;;;;;;;4.10;2.00;;;15.00;99.90;;;;;;5063910;28;20052;-56
2023/10/03 09:33:39;;;;;;;5.50;2.13;;;15.10;99.90;;;;;;5057369;28;20048;-54
2023/10/03 09:36:06;;;;;;;6.65;3.00;;;15.10;99.90;;;;;;5048177;28;20044;-52
2023/10/03 09:38:44;;;;;;;9.57;2.80;;;15.10;99.90;;;;;;5053112;28;20075;-55
2023/10/03 09:41:17;;;;;;;5.03;1.92;;;15.10;99.90;;;;;;5065037;28;20053;-54
2023/10/03 09:43:49;;;;;;;8.90;2.87;;;14.90;99.90;;;;;;5052066;28;20142;-52
2023/10/03 09:46:23;;;;;;;8.40;1.83;;;14.90;99.90;;;;;;5047257;28;20135;-51
2023/10/03 09:48:54;;;;;;;7.45;2.33;;;15.00;99.90;;;;;;5055085;28;20042;-54
2023/10/03 09:51:36;;;;;;;11.95;1.75;;;15.10;99.90;;;;;;5047213;28;20049;-54
2023/10/03 09:54:05;;;;;;;6.80;2.30;;;15.20;99.90;;;;;;5039622;28;20412;-55
2023/10/03 09:56:36;;;;;;;6.43;2.45;;;15.40;99.90;;;;;;5029145;28;20559;-51
2023/10/03 09:59:05;;;;;;;5.68;1.77;;;15.50;99.90;;;;;;5038078;28;20040;-53
2023/10/03 10:01:34;;;;;;;6.68;1.77;;;15.50;99.90;;;;;;5028822;28;20057;-53
2023/10/03 10:04:02;;;;;;;8.07;2.30;;;15.60;99.90;;;;;;5029205;28;20132;-54
2023/10/03 10:06:37;;;;;;;5.32;2.08;;;15.70;99.90;;;;;;5009891;28;20045;-54
2023/10/03 10:09:13;;;;;;;6.22;2.80;;;15.70;99.90;;;;;;5038742;28;20048;-53
2023/10/03 10:12:11;;;;;;;6.82;2.13;;;15.70;99.90;;;;;;5026878;28;20077;-54
2023/10/03 10:17:54;;;;;;;6.82;1.80;;;15.70;99.90;;;;;;5029075;28;20041;-54
2023/10/03 10:20:27;;;;;;;6.57;2.03;;;15.90;99.90;;;;;;5025544;28;20037;-54
2023/10/03 10:22:58;;;;;;;6.05;1.67;;;16.00;99.90;;;;;;5042533;28;20059;-53
2023/10/03 10:25:25;;;;;;;5.00;1.80;;;16.10;99.90;;;;;;5016412;28;20045;-56
2023/10/03 10:28:05;;;;;;;5.63;1.50;;;16.20;99.90;;;;;;5028983;28;20048;-54
2023/10/03 10:30:36;;;;;;;7.35;2.22;;;16.20;99.90;;;;;;5035365;28;20182;-55
2023/10/03 10:33:18;;;;;;;3.88;2.05;;;16.20;99.90;;;;;;5044485;28;20118;-51
2023/10/03 10:35:49;;;;;;;8.50;2.63;;;16.20;99.90;;;;;;5035256;28;20079;-52
2023/10/03 10:38:16;;;;;;;7.93;2.28;;;16.30;99.90;;;;;;5043928;28;20045;-52
2023/10/03 10:41:27;;;;;;;11.05;2.92;;;16.30;99.90;;;;;;5033507;28;20682;-57
2023/10/03 10:44:16;;;;;;;5.80;2.13;;;16.30;99.90;;;;;;5037462;28;20061;-54
2023/10/03 10:46:49;;;;;;;6.15;1.83;;;16.40;99.90;;;;;;5043226;28;20044;-52
2023/10/03 10:49:31;;;;;;;7.22;2.15;;;16.50;99.90;;;;;;5044397;28;20045;-53
2023/10/03 10:51:59;;;;;;;7.03;2.25;;;16.50;99.90;;;;;;5044196;28;20499;-52
2023/10/03 10:54:27;;;;;;;6.95;2.13;;;16.60;99.90;;;;;;5044996;28;20136;-57
2023/10/03 10:57:01;;;;;;;7.70;2.25;;;16.70;99.90;;;;;;5037370;28;20492;-52
2023/10/03 10:59:28;;;;;;;6.85;2.40;;;16.70;99.90;;;;;;5032100;28;20052;-54
2023/10/03 11:01:57;;;;;;;6.07;2.05;;;16.70;99.90;;;;;;5046993;28;20052;-52
2023/10/03 11:04:25;;;;;;;7.70;2.20;;;16.80;99.90;;;;;;5051255;28;20047;-55
2023/10/03 11:06:52;;;;;;;5.20;1.85;;;16.80;99.90;;;;;;5041425;28;20071;-53
2023/10/03 11:09:20;;;;;;;4.50;1.83;;;16.90;99.90;;;;;;5067440;28;20041;-55
2023/10/03 11:11:47;;;;;;;2.92;1.42;;;17.10;99.90;;;;;;5058494;28;20060;-59
2023/10/03 11:14:28;;;;;;;11.73;2.42;;;17.20;99.90;;;;;;5056571;28;20115;-54
2023/10/03 11:16:56;;;;;;;5.50;1.60;;;17.20;99.90;;;;;;5055002;28;20047;-51
2023/10/03 11:19:23;;;;;;;7.22;1.42;;;17.20;99.90;;;;;;5067842;28;20053;-53
2023/10/03 11:21:49;;;;;;;7.13;1.65;;;17.20;99.90;;;;;;5042849;28;20048;-54
2023/10/03 11:24:18;;;;;;;10.13;2.05;;;17.30;99.90;;;;;;5031830;28;20087;-50
2023/10/03 11:26:57;;;;;;;8.30;2.60;;;17.40;99.90;;;;;;5061093;28;20055;-53
2023/10/03 11:29:48;;;;;;;6.90;1.92;;;17.50;99.90;;;;;;5049338;28;20144;-53
2023/10/03 11:32:22;;;;;;;5.47;1.85;;;17.50;99.90;;;;;;5056269;28;20045;-53
2023/10/03 11:34:50;;;;;;;9.45;2.10;;;17.60;99.90;;;;;;5031927;28;20507;-54
2023/10/03 11:37:39;;;;;;;4.50;1.50;;;17.70;99.90;;;;;;5049368;28;20045;-52
2023/10/03 11:40:16;;;;;;;9.13;2.20;;;17.50;99.90;;;;;;5064935;28;20487;-53
2023/10/03 11:43:04;;;;;;;6.53;1.30;;;17.50;99.90;;;;;;5057210;28;20060;-55
2023/10/03 11:45:33;;;;;;;8.05;1.95;;;17.50;99.90;;;;;;5048093;28;20063;-54
2023/10/03 11:48:17;;;;;;;3.20;1.67;;;17.50;99.90;;;;;;5043579;28;20068;-55
2023/10/03 11:50:45;;;;;;;3.90;1.30;;;17.70;99.90;;;;;;5051383;28;20037;-53
2023/10/03 11:53:12;;;;;;;9.02;1.67;;;17.80;99.90;;;;;;5058048;28;20090;-53
2023/10/03 11:55:40;;;;;;;5.65;1.48;;;17.80;99.90;;;;;;5066148;28;20052;-53
2023/10/03 11:58:11;;;;;;;4.38;1.52;;;17.80;99.90;;;;;;5056727;28;20048;-53
2023/10/03 12:00:43;;;;;;;3.85;1.13;;;17.80;99.90;;;;;;5067734;28;20054;-52
2023/10/03 12:03:11;;;;;;;5.45;1.80;;;17.70;99.90;;;;;;5049640;28;20072;-54
2023/10/03 12:05:39;;;;;;;3.47;1.20;;;17.80;99.90;;;;;;5028452;28;20049;-53
2023/10/03 12:08:06;;;;;;;4.50;1.80;;;17.70;99.90;;;;;;5046768;28;20064;-54
2023/10/03 12:10:34;;;;;;;5.65;1.83;;;17.70;99.90;;;;;;5048218;28;20063;-55
2023/10/03 12:13:02;;;;;;;11.95;1.85;;;17.70;99.90;;;;;;5048439;28;20044;-52
2023/10/03 12:15:29;;;;;;;9.23;1.83;;;17.80;99.90;;;;;;5034271;28;20049;-55
2023/10/03 12:17:58;;;;;;;6.65;1.77;;;17.80;99.90;;;;;;5035793;28;20041;-54
2023/10/03 12:20:25;;;;;;;6.25;1.70;;;17.90;99.90;;;;;;5045843;28;20188;-54
2023/10/03 12:22:53;;;;;;;4.55;1.30;;;18.00;99.90;;;;;;5049393;28;20091;-54
2023/10/03 12:25:22;;;;;;;12.02;2.20;;;17.90;99.90;;;;;;5042906;28;20049;-54
2023/10/03 12:27:49;;;;;;;3.33;1.27;;;17.90;99.90;;;;;;5040065;28;20550;-54
2023/10/03 12:30:16;;;;;;;4.57;1.58;;;17.70;99.90;;;;;;5037167;28;20126;-54
2023/10/03 12:32:45;;;;;;;7.85;1.65;;;17.70;99.90;;;;;;5033826;28;20470;-53
2023/10/03 12:35:13;;;;;;;5.95;1.80;;;17.70;99.90;;;;;;5059688;28;20045;-52
2023/10/03 12:37:41;;;;;;;3.95;1.17;;;17.60;99.90;;;;;;5062362;28;20048;-54
2023/10/03 12:40:13;;;;;;;4.90;1.70;;;17.60;99.90;;;;;;5055649;28;20098;-54
2023/10/03 12:42:43;;;;;;;3.03;1.42;;;17.70;99.90;;;;;;5049501;28;20380;-53
2023/10/03 12:45:13;;;;;;;12.75;1.55;;;17.60;99.90;;;;;;5052338;28;20044;-54
2023/10/03 12:47:46;;;;;;;6.65;1.48;;;17.70;99.90;;;;;;5048175;28;20415;-58
2023/10/03 12:50:19;;;;;;;4.18;1.10;;;17.70;99.90;;;;;;5045547;28;20255;-55
2023/10/03 12:52:50;;;;;;;2.47;1.55;;;17.80;99.90;;;;;;5047937;28;20045;-55
2023/10/03 12:55:18;;;;;;;4.85;1.17;;;17.90;99.90;;;;;;5038644;28;20098;-54
2023/10/03 12:57:48;;;;;;;4.28;1.30;;;18.00;99.90;;;;;;5064504;28;20558;-52
2023/10/03 13:00:23;;;;;;;2.60;1.48;;;18.00;99.90;;;;;;5056063;28;20045;-55
2023/10/03 13:02:51;;;;;;;2.42;1.17;;;18.00;99.90;;;;;;5030619;28;20049;-54
2023/10/03 13:05:21;;;;;;;5.40;1.35;;;18.00;99.90;;;;;;5040265;28;20337;-54
2023/10/03 13:07:48;;;;;;;2.65;0.98;;;18.10;99.90;;;;;;5046295;28;20144;-54